Observations for FARNBOROUGH, United Kingdom (EGLF)

EGLF 242020Z 19001KT CAVOK M01/M01 Q1013
EGLF 241950Z 22003KT CAVOK M02/M02 Q1013
EGLF 241920Z 22003KT CAVOK M01/M01 Q1013
EGLF 241820Z 20002KT CAVOK 00/00 Q1012  
EGLF 241750Z 21003KT CAVOK M01/M01 Q1012
EGLF 241720Z 23003KT CAVOK M00/M01 Q1012
EGLF 241650Z 22003KT CAVOK 02/01 Q1012  
EGLF 241620Z 30003KT CAVOK 05/03 Q1012  
EGLF 241550Z 33005KT CAVOK 06/04 Q1012  
EGLF 241520Z 32001KT CAVOK 06/04 Q1012  
EGLF 241450Z 35003KT CAVOK 06/04 Q1012  
EGLF 241420Z 35004KT 310V010 CAVOK 07/04 Q1012  
EGLF 241350Z VRB02KT 9999 FEW012 07/04 Q1012
EGLF 241320Z 31004KT CAVOK 07/04 Q1012  
EGLF 241250Z VRB02KT CAVOK 07/04 Q1012  
EGLF 241220Z VRB02KT 9999 FEW012 07/03 Q1012
EGLF 241150Z VRB02KT 9999 FEW012 07/04 Q1012
EGLF 241120Z 00000KT CAVOK 06/05 Q1012  
EGLF 241050Z VRB02KT CAVOK 06/05 Q1012  
EGLF 241020Z VRB02KT CAVOK 06/05 Q1011  
EGLF 240950Z VRB02KT CAVOK 05/05 Q1011  
EGLF 240920Z 22004KT CAVOK 05/05 Q1011  
EGLF 240850Z 30003KT CAVOK 04/04 Q1010  
EGLF 240820Z VRB01KT 9999 1300SE MIFG 04/04 Q1010   
EGLF 240750Z VRB02KT CAVOK 05/04 Q1009  
EGLF 240720Z VRB03KT 9999 SCT038 05/05 Q1009
EGLF 240650Z 25006KT 9999 SCT040 05/05 Q1009